Impacts METAR Board
IDs:

KDFW - Dallas-Ft Worth Intl, TX, US

Updated at: 2100 UTC 06 Dec 2019
Potential Impact None Slight Moderate High
Time 06/09Z 06/10Z 06/11Z 06/12Z 06/13Z 06/14Z 06/15Z 06/16Z 06/17Z 06/18Z 06/19Z 06/20Z 06/21Z
Temp58 56 55 54 53 53 54 55 58 60 62 62 61
Dewpt43 42 41 41 41 40 40 39 39 39 38 38 39
Altim29.94 29.98 30.00 30.03 30.07 30.10 30.16 30.20 30.22 30.22 30.20 30.19 30.20
VIS10 10 10 10 10 10 10 10 10 10 10 10 10
CIG-- -- -- -- -- 21 24 -- -- -- -- 250 250
CoverCLRCLRSCTSCTSCTBKNBKNSCTSCTSCTSCTBKNBKN
FltCatVFRVFRVFRVFRVFRMVFRMVFRVFRVFRVFRVFRVFRVFR
WX--------------------------
WDir300300310330330340340340350360340360330
WSpd17 15 17 19 16 17 18 21 18 16 11 15 14
WGst28 20 22 25 -- 26 22 24 -- -- -- -- --
Raw hourly METARs
KDFW 060853Z 30017G28KT 10SM CLR 14/06 A2994 RMK AO2 PK WND 30028/0844 SLP132 T01440061 53018
KDFW 060953Z 30015G20KT 10SM CLR 13/06 A2998 RMK AO2 SLP146 T01330056
KDFW 061053Z 31017G22KT 10SM SCT020 13/05 A3000 RMK AO2 SLP156 T01280050
KDFW 061153Z 33019G25KT 10SM SCT020 12/05 A3003 RMK AO2 SLP166 T01220050 10172 20122 51032
KDFW 061253Z 33016KT 10SM SCT020 12/05 A3007 RMK AO2 PK WND 32026/1202 SLP178 T01170050
KDFW 061353Z 34017G26KT 10SM BKN021 12/04 A3010 RMK AO2 PK WND 34026/1347 SLP188 T01170044
KDFW 061453Z 34018G22KT 10SM BKN024 12/04 A3016 RMK AO2 PK WND 34027/1355 SLP208 T01220044 53042
KDFW 061553Z 34021G24KT 10SM SCT030 SCT250 13/04 A3020 RMK AO2 SLP222 T01280039
KDFW 061653Z 35018KT 10SM FEW030 SCT250 14/04 A3022 RMK AO2 SLP230 T01440039
KDFW 061753Z 36016KT 10SM SCT250 16/04 A3022 RMK AO2 SLP228 T01560039 10156 20111 50019
KDFW 061853Z 34011KT 10SM SCT250 17/03 A3020 RMK AO2 SLP223 T01670033
KDFW 061953Z 36015KT 10SM BKN250 17/03 A3019 RMK AO2 SLP220 T01670033
KDFW 062053Z 33014KT 10SM BKN250 16/04 A3020 RMK AO2 SLP223 T01610039 55005



Page loaded:  21:09 UTC  |   01:09 PM Pacific  |   02:09 PM Mountain  |   03:09 PM Central  |   04:09 PM Eastern

 

ADVISORIES

FORECASTS

FORECASTS

OBSERVATIONS

USER TOOLS

ABOUT US